sensor_id;sensor_type;location;lat;lon;timestamp;temperature;humidity
360;DHT22;168;48.872;9.226;2023-08-12T00:00:21;22.80;92.30
360;DHT22;168;48.872;9.226;2023-08-12T00:02:52;22.90;92.30
360;DHT22;168;48.872;9.226;2023-08-12T00:05:20;22.90;92.30
360;DHT22;168;48.872;9.226;2023-08-12T00:07:50;22.90;92.30
360;DHT22;168;48.872;9.226;2023-08-12T00:10:19;22.90;92.20
360;DHT22;168;48.872;9.226;2023-08-12T00:12:48;22.90;92.20
360;DHT22;168;48.872;9.226;2023-08-12T00:15:16;22.90;92.20
360;DHT22;168;48.872;9.226;2023-08-12T00:17:44;22.90;92.30
360;DHT22;168;48.872;9.226;2023-08-12T00:20:13;22.80;92.30
360;DHT22;168;48.872;9.226;2023-08-12T00:22:43;22.80;92.30
360;DHT22;168;48.872;9.226;2023-08-12T00:25:13;22.80;92.30
360;DHT22;168;48.872;9.226;2023-08-12T00:27:43;22.80;92.30
360;DHT22;168;48.872;9.226;2023-08-12T00:30:12;22.80;92.30
360;DHT22;168;48.872;9.226;2023-08-12T00:32:42;22.70;92.30
360;DHT22;168;48.872;9.226;2023-08-12T00:35:11;22.70;92.30
360;DHT22;168;48.872;9.226;2023-08-12T00:37:41;22.70;92.30
360;DHT22;168;48.872;9.226;2023-08-12T00:40:10;22.70;92.30
360;DHT22;168;48.872;9.226;2023-08-12T00:42:41;22.80;92.30
360;DHT22;168;48.872;9.226;2023-08-12T00:45:10;22.80;92.20
360;DHT22;168;48.872;9.226;2023-08-12T00:47:40;22.70;92.30
360;DHT22;168;48.872;9.226;2023-08-12T00:50:12;22.70;92.30
360;DHT22;168;48.872;9.226;2023-08-12T00:52:42;22.60;92.30
360;DHT22;168;48.872;9.226;2023-08-12T00:55:11;22.60;92.40
360;DHT22;168;48.872;9.226;2023-08-12T00:57:42;22.50;92.50
360;DHT22;168;48.872;9.226;2023-08-12T01:00:12;22.50;92.50
360;DHT22;168;48.872;9.226;2023-08-12T01:02:42;22.50;92.50
360;DHT22;168;48.872;9.226;2023-08-12T01:05:16;22.50;92.50
360;DHT22;168;48.872;9.226;2023-08-12T01:07:48;22.50;92.50
360;DHT22;168;48.872;9.226;2023-08-12T01:10:21;22.50;92.50
360;DHT22;168;48.872;9.226;2023-08-12T01:12:59;22.50;92.60
360;DHT22;168;48.872;9.226;2023-08-12T01:15:32;22.50;92.50
360;DHT22;168;48.872;9.226;2023-08-12T01:18:04;22.50;92.50
360;DHT22;168;48.872;9.226;2023-08-12T01:20:35;22.50;92.50
360;DHT22;168;48.872;9.226;2023-08-12T01:23:16;22.50;92.60
360;DHT22;168;48.872;9.226;2023-08-12T01:25:48;22.40;92.70
360;DHT22;168;48.872;9.226;2023-08-12T01:28:18;22.40;92.70
360;DHT22;168;48.872;9.226;2023-08-12T01:30:55;22.30;92.80
360;DHT22;168;48.872;9.226;2023-08-12T01:33:34;22.30;92.80
360;DHT22;168;48.872;9.226;2023-08-12T01:36:15;22.30;92.90
360;DHT22;168;48.872;9.226;2023-08-12T01:38:53;22.30;92.80
360;DHT22;168;48.872;9.226;2023-08-12T01:41:26;22.30;92.90
360;DHT22;168;48.872;9.226;2023-08-12T01:43:56;22.30;92.90
360;DHT22;168;48.872;9.226;2023-08-12T01:46:26;22.30;92.90
360;DHT22;168;48.872;9.226;2023-08-12T01:48:56;22.30;92.90
360;DHT22;168;48.872;9.226;2023-08-12T01:51:27;22.20;92.90
360;DHT22;168;48.872;9.226;2023-08-12T01:54:03;22.00;93.10
360;DHT22;168;48.872;9.226;2023-08-12T01:56:35;21.90;93.30
360;DHT22;168;48.872;9.226;2023-08-12T01:59:07;21.80;93.30
360;DHT22;168;48.872;9.226;2023-08-12T02:01:42;21.80;93.30
360;DHT22;168;48.872;9.226;2023-08-12T02:04:17;21.80;93.30
360;DHT22;168;48.872;9.226;2023-08-12T02:06:51;21.80;93.30
360;DHT22;168;48.872;9.226;2023-08-12T02:09:27;21.80;93.30
360;DHT22;168;48.872;9.226;2023-08-12T02:12:03;21.80;93.30
360;DHT22;168;48.872;9.226;2023-08-12T02:14:35;21.80;93.30
360;DHT22;168;48.872;9.226;2023-08-12T02:17:08;21.90;93.30
360;DHT22;168;48.872;9.226;2023-08-12T02:19:41;22.00;93.20
360;DHT22;168;48.872;9.226;2023-08-12T02:22:19;22.00;93.20
360;DHT22;168;48.872;9.226;2023-08-12T02:24:54;22.00;93.00
360;DHT22;168;48.872;9.226;2023-08-12T02:27:26;22.00;93.10
360;DHT22;168;48.872;9.226;2023-08-12T02:29:58;22.00;93.00
360;DHT22;168;48.872;9.226;2023-08-12T02:32:29;22.10;93.00
360;DHT22;168;48.872;9.226;2023-08-12T02:35:01;22.20;92.90
360;DHT22;168;48.872;9.226;2023-08-12T02:37:33;22.20;92.90
360;DHT22;168;48.872;9.226;2023-08-12T02:40:05;22.30;92.80
360;DHT22;168;48.872;9.226;2023-08-12T02:42:37;22.30;92.80
360;DHT22;168;48.872;9.226;2023-08-12T02:45:08;22.30;92.70
360;DHT22;168;48.872;9.226;2023-08-12T02:47:38;22.40;92.70
360;DHT22;168;48.872;9.226;2023-08-12T02:50:10;22.40;92.60
360;DHT22;168;48.872;9.226;2023-08-12T02:52:42;22.40;92.60
360;DHT22;168;48.872;9.226;2023-08-12T02:55:17;22.40;92.60
360;DHT22;168;48.872;9.226;2023-08-12T02:57:50;22.30;92.70
360;DHT22;168;48.872;9.226;2023-08-12T03:00:22;22.30;92.70
360;DHT22;168;48.872;9.226;2023-08-12T03:02:51;22.30;92.80
360;DHT22;168;48.872;9.226;2023-08-12T03:05:21;22.20;92.80
360;DHT22;168;48.872;9.226;2023-08-12T03:07:52;22.20;92.90
360;DHT22;168;48.872;9.226;2023-08-12T03:10:24;22.20;92.90
360;DHT22;168;48.872;9.226;2023-08-12T03:12:56;22.20;92.90
360;DHT22;168;48.872;9.226;2023-08-12T03:15:28;22.30;92.90
360;DHT22;168;48.872;9.226;2023-08-12T03:17:57;22.30;92.90
360;DHT22;168;48.872;9.226;2023-08-12T03:20:26;22.30;92.90
360;DHT22;168;48.872;9.226;2023-08-12T03:22:58;22.30;92.90
360;DHT22;168;48.872;9.226;2023-08-12T03:25:31;22.30;92.90
360;DHT22;168;48.872;9.226;2023-08-12T03:28:03;22.30;92.90
360;DHT22;168;48.872;9.226;2023-08-12T03:30:33;22.40;92.80
360;DHT22;168;48.872;9.226;2023-08-12T03:33:02;22.40;92.80
360;DHT22;168;48.872;9.226;2023-08-12T03:35:31;22.40;92.70
360;DHT22;168;48.872;9.226;2023-08-12T03:38:01;22.40;92.70
360;DHT22;168;48.872;9.226;2023-08-12T03:40:38;22.50;92.70
360;DHT22;168;48.872;9.226;2023-08-12T03:43:09;22.20;92.80
360;DHT22;168;48.872;9.226;2023-08-12T03:45:42;22.10;93.00
360;DHT22;168;48.872;9.226;2023-08-12T03:48:11;22.10;93.00
360;DHT22;168;48.872;9.226;2023-08-12T03:50:41;22.00;93.10
360;DHT22;168;48.872;9.226;2023-08-12T03:53:09;21.80;93.30
360;DHT22;168;48.872;9.226;2023-08-12T03:55:38;21.80;93.30
360;DHT22;168;48.872;9.226;2023-08-12T03:58:06;21.80;93.40
360;DHT22;168;48.872;9.226;2023-08-12T04:00:34;21.60;93.40
360;DHT22;168;48.872;9.226;2023-08-12T04:03:03;21.40;93.40
360;DHT22;168;48.872;9.226;2023-08-12T04:05:31;21.50;93.40
360;DHT22;168;48.872;9.226;2023-08-12T04:07:59;21.70;93.50
360;DHT22;168;48.872;9.226;2023-08-12T04:10:27;21.80;93.40
360;DHT22;168;48.872;9.226;2023-08-12T04:12:57;21.80;93.40
360;DHT22;168;48.872;9.226;2023-08-12T04:15:26;21.90;93.40
360;DHT22;168;48.872;9.226;2023-08-12T04:17:54;21.60;93.40
360;DHT22;168;48.872;9.226;2023-08-12T04:20:22;21.70;93.50
360;DHT22;168;48.872;9.226;2023-08-12T04:22:50;21.70;93.40
360;DHT22;168;48.872;9.226;2023-08-12T04:25:18;21.70;93.40
360;DHT22;168;48.872;9.226;2023-08-12T04:27:46;21.60;93.40
360;DHT22;168;48.872;9.226;2023-08-12T04:30:18;21.50;93.40
360;DHT22;168;48.872;9.226;2023-08-12T04:32:46;21.30;93.40
360;DHT22;168;48.872;9.226;2023-08-12T04:35:14;21.30;93.30
360;DHT22;168;48.872;9.226;2023-08-12T04:37:42;21.50;93.40
360;DHT22;168;48.872;9.226;2023-08-12T04:40:10;21.60;93.50
360;DHT22;168;48.872;9.226;2023-08-12T04:42:38;21.80;93.40
360;DHT22;168;48.872;9.226;2023-08-12T04:45:07;22.00;93.30
360;DHT22;168;48.872;9.226;2023-08-12T04:47:36;22.10;93.10
360;DHT22;168;48.872;9.226;2023-08-12T04:50:05;22.10;93.10
360;DHT22;168;48.872;9.226;2023-08-12T04:52:33;22.20;93.00
360;DHT22;168;48.872;9.226;2023-08-12T04:55:01;22.30;92.90
360;DHT22;168;48.872;9.226;2023-08-12T04:57:31;22.40;92.90
360;DHT22;168;48.872;9.226;2023-08-12T04:59:59;22.50;92.80
360;DHT22;168;48.872;9.226;2023-08-12T05:02:26;22.50;92.60
360;DHT22;168;48.872;9.226;2023-08-12T05:04:56;22.60;92.50
360;DHT22;168;48.872;9.226;2023-08-12T05:07:25;22.70;92.40
360;DHT22;168;48.872;9.226;2023-08-12T05:09:53;22.70;92.40
360;DHT22;168;48.872;9.226;2023-08-12T05:12:24;22.70;92.30
360;DHT22;168;48.872;9.226;2023-08-12T05:14:53;22.80;92.40
360;DHT22;168;48.872;9.226;2023-08-12T05:17:22;22.90;92.40
360;DHT22;168;48.872;9.226;2023-08-12T05:19:52;22.80;92.40
360;DHT22;168;48.872;9.226;2023-08-12T05:22:21;22.80;92.40
360;DHT22;168;48.872;9.226;2023-08-12T05:24:50;22.90;92.40
360;DHT22;168;48.872;9.226;2023-08-12T05:27:18;22.90;92.40
360;DHT22;168;48.872;9.226;2023-08-12T05:29:46;22.90;92.30
360;DHT22;168;48.872;9.226;2023-08-12T05:32:14;23.00;92.40
360;DHT22;168;48.872;9.226;2023-08-12T05:34:42;23.10;92.60
360;DHT22;168;48.872;9.226;2023-08-12T05:37:10;23.10;92.40
360;DHT22;168;48.872;9.226;2023-08-12T05:39:39;23.10;92.30
360;DHT22;168;48.872;9.226;2023-08-12T05:42:08;23.10;92.60
360;DHT22;168;48.872;9.226;2023-08-12T05:44:36;23.10;92.70
360;DHT22;168;48.872;9.226;2023-08-12T05:47:04;23.10;92.60
360;DHT22;168;48.872;9.226;2023-08-12T05:49:32;23.10;92.70
360;DHT22;168;48.872;9.226;2023-08-12T05:52:00;23.10;92.60
360;DHT22;168;48.872;9.226;2023-08-12T05:54:27;23.10;92.70
360;DHT22;168;48.872;9.226;2023-08-12T05:56:57;23.10;92.80
360;DHT22;168;48.872;9.226;2023-08-12T05:59:25;23.20;92.80
360;DHT22;168;48.872;9.226;2023-08-12T06:01:54;23.20;92.80
360;DHT22;168;48.872;9.226;2023-08-12T06:04:23;23.20;92.90
360;DHT22;168;48.872;9.226;2023-08-12T06:06:55;23.30;92.80
360;DHT22;168;48.872;9.226;2023-08-12T06:09:26;23.30;92.70
360;DHT22;168;48.872;9.226;2023-08-12T06:11:58;23.40;92.50
360;DHT22;168;48.872;9.226;2023-08-12T06:14:28;23.40;92.50
360;DHT22;168;48.872;9.226;2023-08-12T06:16:57;23.50;92.50
360;DHT22;168;48.872;9.226;2023-08-12T06:19:25;23.50;92.50
360;DHT22;168;48.872;9.226;2023-08-12T06:21:54;23.40;92.80
360;DHT22;168;48.872;9.226;2023-08-12T06:24:25;23.40;92.90
360;DHT22;168;48.872;9.226;2023-08-12T06:26:59;23.40;93.00
360;DHT22;168;48.872;9.226;2023-08-12T06:29:29;23.40;93.00
360;DHT22;168;48.872;9.226;2023-08-12T06:32:00;23.40;92.90
360;DHT22;168;48.872;9.226;2023-08-12T06:34:32;23.50;92.90
360;DHT22;168;48.872;9.226;2023-08-12T06:37:01;23.50;92.90
360;DHT22;168;48.872;9.226;2023-08-12T06:39:30;23.50;92.90
360;DHT22;168;48.872;9.226;2023-08-12T06:42:00;23.60;92.90
360;DHT22;168;48.872;9.226;2023-08-12T06:44:30;23.70;92.90
360;DHT22;168;48.872;9.226;2023-08-12T06:46:58;23.80;92.80
360;DHT22;168;48.872;9.226;2023-08-12T06:49:27;24.00;92.70
360;DHT22;168;48.872;9.226;2023-08-12T06:51:57;24.10;92.50
360;DHT22;168;48.872;9.226;2023-08-12T06:54:28;24.20;92.30
360;DHT22;168;48.872;9.226;2023-08-12T06:57:05;24.40;92.40
360;DHT22;168;48.872;9.226;2023-08-12T06:59:37;24.50;92.20
360;DHT22;168;48.872;9.226;2023-08-12T07:02:08;24.60;91.70
360;DHT22;168;48.872;9.226;2023-08-12T07:04:41;24.80;91.30
360;DHT22;168;48.872;9.226;2023-08-12T07:07:14;24.90;91.40
360;DHT22;168;48.872;9.226;2023-08-12T07:09:46;24.90;91.40
360;DHT22;168;48.872;9.226;2023-08-12T07:12:23;25.00;90.40
360;DHT22;168;48.872;9.226;2023-08-12T07:14:53;25.00;90.10
360;DHT22;168;48.872;9.226;2023-08-12T07:17:22;25.00;90.20
360;DHT22;168;48.872;9.226;2023-08-12T07:19:50;25.00;90.50
360;DHT22;168;48.872;9.226;2023-08-12T07:22:20;25.00;90.60
360;DHT22;168;48.872;9.226;2023-08-12T07:24:51;25.10;90.60
360;DHT22;168;48.872;9.226;2023-08-12T07:27:28;25.30;89.30
360;DHT22;168;48.872;9.226;2023-08-12T07:29:59;25.50;88.30
360;DHT22;168;48.872;9.226;2023-08-12T07:32:30;25.60;88.10
360;DHT22;168;48.872;9.226;2023-08-12T07:34:59;25.60;87.30
360;DHT22;168;48.872;9.226;2023-08-12T07:37:29;25.50;87.60
360;DHT22;168;48.872;9.226;2023-08-12T07:39:58;25.40;88.00
360;DHT22;168;48.872;9.226;2023-08-12T07:42:28;25.50;88.00
360;DHT22;168;48.872;9.226;2023-08-12T07:44:57;25.60;87.50
360;DHT22;168;48.872;9.226;2023-08-12T07:47:26;25.70;87.70
360;DHT22;168;48.872;9.226;2023-08-12T07:49:57;25.70;87.90
360;DHT22;168;48.872;9.226;2023-08-12T07:52:27;25.90;88.30
360;DHT22;168;48.872;9.226;2023-08-12T07:54:58;26.00;88.30
360;DHT22;168;48.872;9.226;2023-08-12T07:57:29;26.20;88.10
360;DHT22;168;48.872;9.226;2023-08-12T07:59:58;26.30;87.50
360;DHT22;168;48.872;9.226;2023-08-12T08:02:28;26.40;87.20
360;DHT22;168;48.872;9.226;2023-08-12T08:04:59;26.40;87.20
360;DHT22;168;48.872;9.226;2023-08-12T08:07:28;26.50;87.50
360;DHT22;168;48.872;9.226;2023-08-12T08:09:57;26.60;87.40
360;DHT22;168;48.872;9.226;2023-08-12T08:12:25;26.70;86.70
360;DHT22;168;48.872;9.226;2023-08-12T08:14:55;26.70;86.60
360;DHT22;168;48.872;9.226;2023-08-12T08:17:24;26.80;86.30
360;DHT22;168;48.872;9.226;2023-08-12T08:19:54;26.90;86.20
360;DHT22;168;48.872;9.226;2023-08-12T08:22:25;27.00;85.60
360;DHT22;168;48.872;9.226;2023-08-12T08:24:57;27.10;86.20
360;DHT22;168;48.872;9.226;2023-08-12T08:27:28;27.30;86.10
360;DHT22;168;48.872;9.226;2023-08-12T08:30:00;27.60;84.20
360;DHT22;168;48.872;9.226;2023-08-12T08:32:29;27.80;83.40
360;DHT22;168;48.872;9.226;2023-08-12T08:34:58;28.00;82.40
360;DHT22;168;48.872;9.226;2023-08-12T08:37:28;28.20;81.70
360;DHT22;168;48.872;9.226;2023-08-12T08:39:57;28.40;79.70
360;DHT22;168;48.872;9.226;2023-08-12T08:42:26;28.60;80.40
360;DHT22;168;48.872;9.226;2023-08-12T08:44:59;28.80;79.10
360;DHT22;168;48.872;9.226;2023-08-12T08:47:29;28.90;77.20
360;DHT22;168;48.872;9.226;2023-08-12T08:49:58;28.90;76.20
360;DHT22;168;48.872;9.226;2023-08-12T08:52:26;28.90;76.00
360;DHT22;168;48.872;9.226;2023-08-12T08:54:56;28.90;77.10
360;DHT22;168;48.872;9.226;2023-08-12T08:57:24;28.90;77.80
360;DHT22;168;48.872;9.226;2023-08-12T08:59:54;29.00;77.10
360;DHT22;168;48.872;9.226;2023-08-12T09:02:25;29.20;74.10
360;DHT22;168;48.872;9.226;2023-08-12T09:04:53;29.30;73.20
360;DHT22;168;48.872;9.226;2023-08-12T09:07:23;29.20;74.80
360;DHT22;168;48.872;9.226;2023-08-12T09:09:53;29.20;75.20
360;DHT22;168;48.872;9.226;2023-08-12T09:12:23;29.20;76.00
360;DHT22;168;48.872;9.226;2023-08-12T09:14:53;29.30;75.80
360;DHT22;168;48.872;9.226;2023-08-12T09:17:21;29.40;75.60
360;DHT22;168;48.872;9.226;2023-08-12T09:19:51;29.50;75.10
360;DHT22;168;48.872;9.226;2023-08-12T09:22:21;29.60;75.90
360;DHT22;168;48.872;9.226;2023-08-12T09:24:56;29.80;76.40
360;DHT22;168;48.872;9.226;2023-08-12T09:27:25;29.80;75.50
360;DHT22;168;48.872;9.226;2023-08-12T09:29:56;29.80;74.40
360;DHT22;168;48.872;9.226;2023-08-12T09:32:24;29.90;74.60
360;DHT22;168;48.872;9.226;2023-08-12T09:34:55;30.00;73.10
360;DHT22;168;48.872;9.226;2023-08-12T09:37:24;30.00;72.70
360;DHT22;168;48.872;9.226;2023-08-12T09:39:53;30.00;73.80
360;DHT22;168;48.872;9.226;2023-08-12T09:42:22;30.00;75.40
360;DHT22;168;48.872;9.226;2023-08-12T09:44:52;30.10;74.40
360;DHT22;168;48.872;9.226;2023-08-12T09:47:26;30.20;74.30
360;DHT22;168;48.872;9.226;2023-08-12T09:50:00;30.30;73.40
360;DHT22;168;48.872;9.226;2023-08-12T09:52:32;30.50;72.30
360;DHT22;168;48.872;9.226;2023-08-12T09:55:05;30.60;73.10
360;DHT22;168;48.872;9.226;2023-08-12T09:57:41;30.70;71.40
360;DHT22;168;48.872;9.226;2023-08-12T10:00:14;30.90;71.00
360;DHT22;168;48.872;9.226;2023-08-12T10:02:47;31.20;70.50
360;DHT22;168;48.872;9.226;2023-08-12T10:05:25;31.50;70.40
360;DHT22;168;48.872;9.226;2023-08-12T10:07:56;31.80;70.00
360;DHT22;168;48.872;9.226;2023-08-12T10:10:25;32.10;68.60
360;DHT22;168;48.872;9.226;2023-08-12T10:12:56;32.30;67.20
360;DHT22;168;48.872;9.226;2023-08-12T10:15:28;32.50;66.20
360;DHT22;168;48.872;9.226;2023-08-12T10:17:58;32.60;66.10
360;DHT22;168;48.872;9.226;2023-08-12T10:20:30;32.50;65.60
360;DHT22;168;48.872;9.226;2023-08-12T10:23:02;32.50;65.50
360;DHT22;168;48.872;9.226;2023-08-12T10:25:36;32.40;66.00
360;DHT22;168;48.872;9.226;2023-08-12T10:28:07;32.50;66.80
360;DHT22;168;48.872;9.226;2023-08-12T10:30:37;32.50;67.50
360;DHT22;168;48.872;9.226;2023-08-12T10:33:08;32.60;67.10
360;DHT22;168;48.872;9.226;2023-08-12T10:35:44;32.60;66.80
360;DHT22;168;48.872;9.226;2023-08-12T10:38:16;32.60;66.30
360;DHT22;168;48.872;9.226;2023-08-12T10:40:44;32.70;65.90
360;DHT22;168;48.872;9.226;2023-08-12T10:43:13;32.70;66.10
360;DHT22;168;48.872;9.226;2023-08-12T10:45:47;32.90;66.30
360;DHT22;168;48.872;9.226;2023-08-12T10:48:21;33.00;66.20
360;DHT22;168;48.872;9.226;2023-08-12T10:50:58;33.10;65.40
360;DHT22;168;48.872;9.226;2023-08-12T10:53:32;33.20;65.10
360;DHT22;168;48.872;9.226;2023-08-12T10:56:05;33.10;63.00
360;DHT22;168;48.872;9.226;2023-08-12T10:58:44;33.00;63.50
360;DHT22;168;48.872;9.226;2023-08-12T11:01:18;32.90;64.10
360;DHT22;168;48.872;9.226;2023-08-12T11:03:49;32.80;64.60
360;DHT22;168;48.872;9.226;2023-08-12T11:06:24;32.80;64.70
360;DHT22;168;48.872;9.226;2023-08-12T11:08:59;32.90;64.90
360;DHT22;168;48.872;9.226;2023-08-12T11:11:30;33.00;65.50
360;DHT22;168;48.872;9.226;2023-08-12T11:14:13;33.30;64.90
360;DHT22;168;48.872;9.226;2023-08-12T11:16:44;33.50;62.70
360;DHT22;168;48.872;9.226;2023-08-12T11:19:14;33.70;62.50
360;DHT22;168;48.872;9.226;2023-08-12T11:21:58;33.80;60.30
360;DHT22;168;48.872;9.226;2023-08-12T11:24:30;33.60;60.40
360;DHT22;168;48.872;9.226;2023-08-12T11:27:04;33.50;60.60
360;DHT22;168;48.872;9.226;2023-08-12T11:29:37;33.50;60.80
360;DHT22;168;48.872;9.226;2023-08-12T11:32:09;33.40;62.20
360;DHT22;168;48.872;9.226;2023-08-12T11:34:42;33.40;62.10
360;DHT22;168;48.872;9.226;2023-08-12T11:37:15;33.30;60.60
360;DHT22;168;48.872;9.226;2023-08-12T11:39:46;33.20;61.20
360;DHT22;168;48.872;9.226;2023-08-12T11:42:17;33.30;60.20
360;DHT22;168;48.872;9.226;2023-08-12T11:44:47;33.40;62.10
360;DHT22;168;48.872;9.226;2023-08-12T11:47:16;33.70;60.90
360;DHT22;168;48.872;9.226;2023-08-12T11:49:44;33.90;60.50
360;DHT22;168;48.872;9.226;2023-08-12T11:52:15;34.00;59.60
360;DHT22;168;48.872;9.226;2023-08-12T11:54:46;34.00;59.10
360;DHT22;168;48.872;9.226;2023-08-12T11:57:18;33.90;58.40
360;DHT22;168;48.872;9.226;2023-08-12T11:59:49;33.60;58.80
360;DHT22;168;48.872;9.226;2023-08-12T12:02:18;32.00;62.60
360;DHT22;168;48.872;9.226;2023-08-12T12:04:48;28.50;75.00
360;DHT22;168;48.872;9.226;2023-08-12T12:07:24;26.70;84.80
360;DHT22;168;48.872;9.226;2023-08-12T12:09:56;25.20;89.50
360;DHT22;168;48.872;9.226;2023-08-12T12:12:27;24.20;91.80
360;DHT22;168;48.872;9.226;2023-08-12T12:14:58;23.60;87.40
360;DHT22;168;48.872;9.226;2023-08-12T12:17:29;23.20;79.50
360;DHT22;168;48.872;9.226;2023-08-12T12:20:01;22.60;75.00
360;DHT22;168;48.872;9.226;2023-08-12T12:22:35;21.90;68.40
360;DHT22;168;48.872;9.226;2023-08-12T12:25:11;20.30;65.50
360;DHT22;168;48.872;9.226;2023-08-12T12:27:47;19.40;64.70
360;DHT22;168;48.872;9.226;2023-08-12T12:30:17;19.00;62.50
360;DHT22;168;48.872;9.226;2023-08-12T12:32:48;19.20;61.90
360;DHT22;168;48.872;9.226;2023-08-12T12:35:19;19.30;60.80
360;DHT22;168;48.872;9.226;2023-08-12T12:37:50;19.40;59.50
360;DHT22;168;48.872;9.226;2023-08-12T12:40:19;19.50;58.50
360;DHT22;168;48.872;9.226;2023-08-12T12:42:49;19.50;57.50
360;DHT22;168;48.872;9.226;2023-08-12T12:45:19;19.70;56.50
360;DHT22;168;48.872;9.226;2023-08-12T12:47:50;19.80;54.70
360;DHT22;168;48.872;9.226;2023-08-12T12:50:18;20.10;44.70
360;DHT22;168;48.872;9.226;2023-08-12T12:52:49;20.30;41.70
360;DHT22;168;48.872;9.226;2023-08-12T12:55:19;20.50;24.60
360;DHT22;168;48.872;9.226;2023-08-12T12:57:47;20.70;23.80
360;DHT22;168;48.872;9.226;2023-08-12T13:00:18;20.90;23.20
360;DHT22;168;48.872;9.226;2023-08-12T13:02:48;21.10;22.70
360;DHT22;168;48.872;9.226;2023-08-12T13:05:18;21.40;22.20
360;DHT22;168;48.872;9.226;2023-08-12T13:07:54;21.50;21.40
360;DHT22;168;48.872;9.226;2023-08-12T13:10:25;21.50;20.60
360;DHT22;168;48.872;9.226;2023-08-12T13:12:55;21.60;19.70
360;DHT22;168;48.872;9.226;2023-08-12T13:15:39;21.80;19.50
360;DHT22;168;48.872;9.226;2023-08-12T13:18:11;21.90;19.30
360;DHT22;168;48.872;9.226;2023-08-12T13:21:06;22.10;19.20
360;DHT22;168;48.872;9.226;2023-08-12T13:24:16;22.40;19.10
360;DHT22;168;48.872;9.226;2023-08-12T13:26:55;22.70;13.80
360;DHT22;168;48.872;9.226;2023-08-12T13:29:27;23.00;11.60
360;DHT22;168;48.872;9.226;2023-08-12T13:40:03;23.20;8.10
360;DHT22;168;48.872;9.226;2023-08-12T13:43:27;23.30;7.90
360;DHT22;168;48.872;9.226;2023-08-12T13:46:11;23.40;7.70
360;DHT22;168;48.872;9.226;2023-08-12T13:49:24;23.50;7.60
360;DHT22;168;48.872;9.226;2023-08-12T13:52:13;23.70;7.60
360;DHT22;168;48.872;9.226;2023-08-12T13:54:48;24.10;8.00
360;DHT22;168;48.872;9.226;2023-08-12T14:00:02;25.00;4.70
360;DHT22;168;48.872;9.226;2023-08-12T14:02:47;25.50;4.70
360;DHT22;168;48.872;9.226;2023-08-12T14:05:19;26.00;4.70
360;DHT22;168;48.872;9.226;2023-08-12T14:07:50;26.50;4.70
360;DHT22;168;48.872;9.226;2023-08-12T14:10:24;26.60;4.70
360;DHT22;168;48.872;9.226;2023-08-12T14:13:01;26.50;4.70
360;DHT22;168;48.872;9.226;2023-08-12T14:15:31;26.60;4.70
360;DHT22;168;48.872;9.226;2023-08-12T14:18:04;26.70;4.70
360;DHT22;168;48.872;9.226;2023-08-12T14:20:34;26.80;4.70
360;DHT22;168;48.872;9.226;2023-08-12T14:23:06;26.80;4.70
360;DHT22;168;48.872;9.226;2023-08-12T14:25:40;26.90;4.70
360;DHT22;168;48.872;9.226;2023-08-12T14:28:11;27.20;4.70
360;DHT22;168;48.872;9.226;2023-08-12T14:30:42;27.30;4.70
360;DHT22;168;48.872;9.226;2023-08-12T14:33:19;27.40;4.70
360;DHT22;168;48.872;9.226;2023-08-12T14:35:53;27.70;4.70
360;DHT22;168;48.872;9.226;2023-08-12T14:38:24;27.80;4.70
360;DHT22;168;48.872;9.226;2023-08-12T14:40:58;28.00;4.70
360;DHT22;168;48.872;9.226;2023-08-12T14:43:29;28.10;4.70
360;DHT22;168;48.872;9.226;2023-08-12T14:45:59;28.10;4.70
360;DHT22;168;48.872;9.226;2023-08-12T14:48:30;28.00;4.70
360;DHT22;168;48.872;9.226;2023-08-12T14:51:02;27.80;4.70
360;DHT22;168;48.872;9.226;2023-08-12T14:53:34;27.90;4.70
360;DHT22;168;48.872;9.226;2023-08-12T14:56:08;28.10;4.70
360;DHT22;168;48.872;9.226;2023-08-12T14:58:39;28.20;4.70
360;DHT22;168;48.872;9.226;2023-08-12T15:01:11;28.60;4.70
360;DHT22;168;48.872;9.226;2023-08-12T15:03:43;28.90;4.70
360;DHT22;168;48.872;9.226;2023-08-12T15:06:14;29.20;4.70
360;DHT22;168;48.872;9.226;2023-08-12T15:08:45;29.60;4.70
360;DHT22;168;48.872;9.226;2023-08-12T15:11:19;29.80;4.70
360;DHT22;168;48.872;9.226;2023-08-12T15:13:50;30.20;6.00
360;DHT22;168;48.872;9.226;2023-08-12T15:16:22;30.40;18.70
360;DHT22;168;48.872;9.226;2023-08-12T15:18:53;30.40;36.40
360;DHT22;168;48.872;9.226;2023-08-12T15:21:24;30.10;49.90
360;DHT22;168;48.872;9.226;2023-08-12T15:23:55;29.80;55.30
360;DHT22;168;48.872;9.226;2023-08-12T15:26:28;29.60;45.80
360;DHT22;168;48.872;9.226;2023-08-12T15:29:00;29.30;41.90
360;DHT22;168;48.872;9.226;2023-08-12T15:31:32;29.00;45.70
360;DHT22;168;48.872;9.226;2023-08-12T15:34:04;28.80;41.40
360;DHT22;168;48.872;9.226;2023-08-12T15:36:34;28.60;36.90
360;DHT22;168;48.872;9.226;2023-08-12T15:39:07;28.30;48.70
360;DHT22;168;48.872;9.226;2023-08-12T15:41:43;28.10;45.90
360;DHT22;168;48.872;9.226;2023-08-12T15:44:14;27.80;56.10
360;DHT22;168;48.872;9.226;2023-08-12T15:46:46;27.60;73.00
360;DHT22;168;48.872;9.226;2023-08-12T15:49:17;27.40;72.70
360;DHT22;168;48.872;9.226;2023-08-12T15:51:48;27.10;68.50
360;DHT22;168;48.872;9.226;2023-08-12T15:54:18;26.90;71.80
360;DHT22;168;48.872;9.226;2023-08-12T15:56:51;26.70;73.60
360;DHT22;168;48.872;9.226;2023-08-12T15:59:21;26.50;80.40
360;DHT22;168;48.872;9.226;2023-08-12T16:01:51;26.40;78.20
360;DHT22;168;48.872;9.226;2023-08-12T16:04:21;26.20;76.80
360;DHT22;168;48.872;9.226;2023-08-12T16:06:50;26.10;82.20
360;DHT22;168;48.872;9.226;2023-08-12T16:09:20;26.00;83.80
360;DHT22;168;48.872;9.226;2023-08-12T16:11:53;25.80;84.50
360;DHT22;168;48.872;9.226;2023-08-12T16:14:24;25.60;81.50
360;DHT22;168;48.872;9.226;2023-08-12T16:16:56;25.30;78.00
360;DHT22;168;48.872;9.226;2023-08-12T16:19:26;25.00;75.60
360;DHT22;168;48.872;9.226;2023-08-12T16:21:57;24.80;71.10
360;DHT22;168;48.872;9.226;2023-08-12T16:24:29;24.40;59.50
360;DHT22;168;48.872;9.226;2023-08-12T16:27:04;24.20;53.20
360;DHT22;168;48.872;9.226;2023-08-12T16:29:34;23.70;45.20
360;DHT22;168;48.872;9.226;2023-08-12T16:32:07;23.40;40.30
360;DHT22;168;48.872;9.226;2023-08-12T16:34:39;23.30;34.60
360;DHT22;168;48.872;9.226;2023-08-12T16:37:10;23.30;37.00
360;DHT22;168;48.872;9.226;2023-08-12T16:39:40;23.20;35.00
360;DHT22;168;48.872;9.226;2023-08-12T16:42:13;23.10;31.90
360;DHT22;168;48.872;9.226;2023-08-12T16:44:44;23.00;30.00
360;DHT22;168;48.872;9.226;2023-08-12T16:47:15;22.90;29.80
360;DHT22;168;48.872;9.226;2023-08-12T16:49:46;22.90;27.70
360;DHT22;168;48.872;9.226;2023-08-12T16:52:16;23.00;26.70
360;DHT22;168;48.872;9.226;2023-08-12T16:54:47;23.00;27.90
360;DHT22;168;48.872;9.226;2023-08-12T16:57:23;23.00;25.40
360;DHT22;168;48.872;9.226;2023-08-12T16:59:54;23.00;26.30
360;DHT22;168;48.872;9.226;2023-08-12T17:02:25;23.00;25.50
360;DHT22;168;48.872;9.226;2023-08-12T17:04:56;23.00;28.30
360;DHT22;168;48.872;9.226;2023-08-12T17:07:26;23.10;31.20
360;DHT22;168;48.872;9.226;2023-08-12T17:09:58;23.10;30.50
360;DHT22;168;48.872;9.226;2023-08-12T17:12:33;23.10;30.30
360;DHT22;168;48.872;9.226;2023-08-12T17:15:08;23.20;32.00